createdAt,value
2019-05-21T00:00:58.232Z,995.59
2019-05-21T00:01:58.239Z,995.60
2019-05-21T00:02:58.219Z,995.56
2019-05-21T00:03:58.236Z,995.58
2019-05-21T00:04:58.228Z,995.58
2019-05-21T00:05:58.220Z,995.58
2019-05-21T00:06:58.221Z,995.58
2019-05-21T00:07:58.215Z,995.57
2019-05-21T00:08:58.212Z,995.58
2019-05-21T00:09:58.220Z,995.59
2019-05-21T00:10:58.221Z,995.58
2019-05-21T00:11:58.208Z,995.58
2019-05-21T00:12:58.201Z,995.57
2019-05-21T00:13:58.205Z,995.58
2019-05-21T00:14:58.202Z,995.59
2019-05-21T00:15:58.200Z,995.58
2019-05-21T00:16:58.196Z,995.59
2019-05-21T00:17:58.193Z,995.56
2019-05-21T00:18:58.190Z,995.59
2019-05-21T00:19:58.253Z,995.53
2019-05-21T00:20:58.183Z,995.56
2019-05-21T00:21:58.199Z,995.59
2019-05-21T00:22:58.199Z,995.58
2019-05-21T00:23:58.177Z,995.59
2019-05-21T00:24:58.210Z,995.57
2019-05-21T00:25:58.172Z,995.60
2019-05-21T00:26:58.176Z,995.59
2019-05-21T00:27:58.170Z,995.59
2019-05-21T00:28:58.163Z,995.59
2019-05-21T00:29:58.215Z,995.61
2019-05-21T00:30:58.164Z,995.61
2019-05-21T00:31:58.171Z,995.59
2019-05-21T00:32:58.172Z,995.61
2019-05-21T00:33:58.161Z,995.62
2019-05-21T00:34:58.147Z,995.64
2019-05-21T00:35:58.148Z,995.61
2019-05-21T00:36:58.355Z,995.61
2019-05-21T00:37:58.142Z,995.57
2019-05-21T00:38:58.134Z,995.59
2019-05-21T00:39:58.140Z,995.60
2019-05-21T00:40:58.150Z,995.55
2019-05-21T00:41:58.136Z,995.63
2019-05-21T00:42:58.133Z,995.60
2019-05-21T00:43:58.129Z,995.60
2019-05-21T00:44:58.126Z,995.64
2019-05-21T00:45:58.120Z,995.65
2019-05-21T00:46:58.135Z,995.64
2019-05-21T00:47:58.123Z,995.65
2019-05-21T00:48:58.110Z,995.64
2019-05-21T00:49:58.113Z,995.66
2019-05-21T00:50:58.127Z,995.63
2019-05-21T00:52:06.847Z,995.65
2019-05-21T00:52:58.114Z,995.67
2019-05-21T00:53:58.139Z,995.70
2019-05-21T00:54:58.104Z,995.69
2019-05-21T00:55:58.099Z,995.67
2019-05-21T00:56:58.097Z,995.63
2019-05-21T00:57:58.095Z,995.66
2019-05-21T00:58:58.081Z,995.63
2019-05-21T00:59:58.087Z,995.64
2019-05-21T01:00:58.079Z,995.63
2019-05-21T01:01:58.080Z,995.62
2019-05-21T01:02:58.079Z,995.64
2019-05-21T01:03:58.080Z,995.63
2019-05-21T01:05:00.862Z,995.64
2019-05-21T01:05:58.073Z,995.66
2019-05-21T01:06:58.067Z,995.65
2019-05-21T01:07:58.066Z,995.62
2019-05-21T01:08:58.130Z,995.64
2019-05-21T01:09:58.062Z,995.61
2019-05-21T01:10:58.060Z,995.61
2019-05-21T01:11:58.050Z,995.61
2019-05-21T01:12:58.049Z,995.67
2019-05-21T01:13:58.070Z,995.62
2019-05-21T01:14:58.037Z,995.61
2019-05-21T01:15:58.045Z,995.63
2019-05-21T01:16:58.061Z,995.65
2019-05-21T01:17:58.042Z,995.62
2019-05-21T01:18:58.028Z,995.61
2019-05-21T01:19:58.021Z,995.61
2019-05-21T01:20:58.027Z,995.61
2019-05-21T01:21:58.021Z,995.62
2019-05-21T01:22:58.031Z,995.59
2019-05-21T01:23:58.011Z,995.58
2019-05-21T01:24:58.009Z,995.62
2019-05-21T01:25:58.012Z,995.58
2019-05-21T01:26:58.009Z,995.57
2019-05-21T01:27:58.007Z,995.62
2019-05-21T01:28:57.999Z,995.62
2019-05-21T01:29:58.001Z,995.64
2019-05-21T01:30:57.998Z,995.64
2019-05-21T01:31:57.997Z,995.59
2019-05-21T01:32:58.012Z,995.61
2019-05-21T01:33:57.989Z,995.63
2019-05-21T01:34:57.990Z,995.65
2019-05-21T01:35:57.980Z,995.63
2019-05-21T01:36:57.983Z,995.66
2019-05-21T01:37:57.981Z,995.62
2019-05-21T01:38:58.000Z,995.63
2019-05-21T01:39:57.989Z,995.59
2019-05-21T01:40:57.971Z,995.60
2019-05-21T01:41:57.963Z,995.59
2019-05-21T01:42:57.957Z,995.57
2019-05-21T01:43:57.969Z,995.58
2019-05-21T01:44:57.956Z,995.59
2019-05-21T01:45:57.964Z,995.61
2019-05-21T01:46:57.948Z,995.59
2019-05-21T01:47:57.961Z,995.59
2019-05-21T01:48:57.953Z,995.60
2019-05-21T01:49:57.942Z,995.60
2019-05-21T01:50:57.938Z,995.57
2019-05-21T01:51:57.931Z,995.61
2019-05-21T01:52:57.958Z,995.60
2019-05-21T01:53:57.929Z,995.62
2019-05-21T01:54:57.929Z,995.59
2019-05-21T01:55:57.931Z,995.59
2019-05-21T01:56:57.922Z,995.54
2019-05-21T01:57:57.918Z,995.59
2019-05-21T01:58:57.979Z,995.58
2019-05-21T01:59:57.917Z,995.58
2019-05-21T02:00:57.909Z,995.59
2019-05-21T02:01:57.911Z,995.55
2019-05-21T02:02:57.895Z,995.56
2019-05-21T02:03:57.899Z,995.54
2019-05-21T02:04:57.894Z,995.60
2019-05-21T02:05:57.894Z,995.59
2019-05-21T02:06:57.892Z,995.55
2019-05-21T02:07:57.889Z,995.55
2019-05-21T02:08:57.881Z,995.56
2019-05-21T02:09:57.905Z,995.56
2019-05-21T02:10:57.881Z,995.57
2019-05-21T02:11:57.881Z,995.54
2019-05-21T02:12:57.884Z,995.52
2019-05-21T02:13:57.867Z,995.58
2019-05-21T02:14:57.867Z,995.56
2019-05-21T02:15:57.861Z,995.58
2019-05-21T02:16:57.875Z,995.56
2019-05-21T02:17:57.860Z,995.57
2019-05-21T02:18:57.848Z,995.59
2019-05-21T02:19:57.850Z,995.59
2019-05-21T02:20:57.845Z,995.60
2019-05-21T02:21:57.855Z,995.62
2019-05-21T02:22:57.838Z,995.58
2019-05-21T02:23:57.841Z,995.61
2019-05-21T02:24:57.832Z,995.59
2019-05-21T02:25:57.831Z,995.60
2019-05-21T02:26:57.823Z,995.62
2019-05-21T02:27:57.823Z,995.63
2019-05-21T02:28:57.821Z,995.63
2019-05-21T02:29:57.820Z,995.62
2019-05-21T02:30:57.828Z,995.65
2019-05-21T02:31:57.815Z,995.61
2019-05-21T02:32:57.813Z,995.60
2019-05-21T02:33:57.830Z,995.63
2019-05-21T02:34:57.808Z,995.63
2019-05-21T02:35:57.806Z,995.64
2019-05-21T02:36:57.804Z,995.62
2019-05-21T02:37:57.826Z,995.60
2019-05-21T02:38:57.811Z,995.64
2019-05-21T02:39:57.794Z,995.63
2019-05-21T02:40:57.804Z,995.65
2019-05-21T02:41:57.784Z,995.65
2019-05-21T02:42:57.777Z,995.65
2019-05-21T02:43:57.774Z,995.61
2019-05-21T02:44:57.820Z,995.63
2019-05-21T02:45:57.783Z,995.69
2019-05-21T02:46:57.773Z,995.63
2019-05-21T02:47:57.765Z,995.68
2019-05-21T02:48:57.756Z,995.68
2019-05-21T02:49:57.757Z,995.67
2019-05-21T02:50:57.793Z,995.62
2019-05-21T02:51:57.752Z,995.63
2019-05-21T02:52:57.748Z,995.61
2019-05-21T02:53:57.746Z,995.63
2019-05-21T02:54:57.751Z,995.63
2019-05-21T02:55:57.740Z,995.64
2019-05-21T02:56:57.764Z,995.63
2019-05-21T02:57:57.735Z,995.68
2019-05-21T02:58:57.727Z,995.64
2019-05-21T02:59:57.741Z,995.68
2019-05-21T03:00:57.727Z,995.71
2019-05-21T03:01:57.725Z,995.69
2019-05-21T03:02:57.715Z,995.68
2019-05-21T03:03:57.710Z,995.70
2019-05-21T03:04:57.715Z,995.68
2019-05-21T03:06:12.427Z,995.70
2019-05-21T03:06:57.709Z,995.73
2019-05-21T03:07:57.701Z,995.78
2019-05-21T03:08:57.694Z,995.75
2019-05-21T03:09:57.690Z,995.75
2019-05-21T03:10:57.699Z,995.77
2019-05-21T03:11:57.694Z,995.78
2019-05-21T03:12:57.700Z,995.80
2019-05-21T03:13:57.695Z,995.79
2019-05-21T03:14:57.681Z,995.79
2019-05-21T03:15:57.706Z,995.77
2019-05-21T03:16:57.677Z,995.79
2019-05-21T03:17:57.678Z,995.76
2019-05-21T03:18:57.669Z,995.79
2019-05-21T03:19:57.669Z,995.82
2019-05-21T03:20:57.662Z,995.80
2019-05-21T03:21:57.662Z,995.79
2019-05-21T03:22:57.669Z,995.79
2019-05-21T03:23:57.658Z,995.78
2019-05-21T03:25:02.130Z,995.81
2019-05-21T03:25:57.644Z,995.83
2019-05-21T03:26:57.646Z,995.83
2019-05-21T03:27:57.646Z,995.85
2019-05-21T03:28:57.646Z,995.87
2019-05-21T03:29:57.634Z,995.87
2019-05-21T03:30:57.644Z,995.87
2019-05-21T03:31:57.642Z,995.83
2019-05-21T03:32:57.659Z,995.86
2019-05-21T03:33:57.625Z,995.83
2019-05-21T03:34:57.620Z,995.85
2019-05-21T03:35:57.619Z,995.87
2019-05-21T03:36:57.629Z,995.81
2019-05-21T03:37:57.616Z,995.87
2019-05-21T03:38:57.618Z,995.88
2019-05-21T03:39:57.609Z,995.86
2019-05-21T03:40:57.600Z,995.90
2019-05-21T03:41:57.608Z,995.87
2019-05-21T03:42:57.615Z,995.84
2019-05-21T03:43:57.610Z,995.88
2019-05-21T03:45:00.378Z,995.83
2019-05-21T03:45:57.588Z,995.88
2019-05-21T03:46:57.578Z,995.88
2019-05-21T03:47:57.578Z,995.91
2019-05-21T03:48:57.568Z,995.89
2019-05-21T03:49:57.571Z,995.89
2019-05-21T03:50:57.565Z,995.88
2019-05-21T03:51:57.570Z,995.88
2019-05-21T03:52:57.565Z,995.87
2019-05-21T03:53:57.562Z,995.93
2019-05-21T03:54:57.547Z,995.87
2019-05-21T03:55:57.540Z,995.93
2019-05-21T03:56:57.551Z,995.92
2019-05-21T03:57:57.542Z,995.92
2019-05-21T03:58:57.538Z,995.97
2019-05-21T03:59:57.545Z,995.95
2019-05-21T04:00:57.553Z,995.96
2019-05-21T04:01:57.530Z,995.98
2019-05-21T04:02:57.522Z,995.99
2019-05-21T04:03:57.521Z,995.98
2019-05-21T04:04:57.510Z,995.99
2019-05-21T04:05:57.514Z,995.94
2019-05-21T04:24:09.624Z,996.13
2019-05-21T04:25:08.464Z,996.16
2019-05-21T04:27:12.435Z,996.18
2019-05-21T04:28:12.425Z,996.18
2019-05-21T04:30:16.431Z,996.23
2019-05-21T04:31:16.391Z,996.20
2019-05-21T04:33:09.293Z,996.15
2019-05-21T04:34:09.276Z,996.18
2019-05-21T04:36:13.805Z,996.27
2019-05-21T04:37:17.343Z,996.25
2019-05-21T04:38:13.752Z,996.28
2019-05-21T04:39:13.751Z,996.27
2019-05-21T04:40:13.761Z,996.32
2019-05-21T04:41:13.738Z,996.36
2019-05-21T04:42:13.733Z,996.37
2019-05-21T04:43:13.734Z,996.42
2019-05-21T04:44:13.723Z,996.41
2019-05-21T04:45:13.734Z,996.37
2019-05-21T04:46:13.719Z,996.43
2019-05-21T04:47:13.709Z,996.41
2019-05-21T04:48:13.721Z,996.46
2019-05-21T04:49:13.725Z,996.41
2019-05-21T04:50:13.701Z,996.42
2019-05-21T04:51:14.242Z,996.44
2019-05-21T04:52:13.691Z,996.42
2019-05-21T04:53:13.705Z,996.39
2019-05-21T04:54:13.694Z,996.41
2019-05-21T04:55:13.684Z,996.39
2019-05-21T04:56:13.686Z,996.42
2019-05-21T04:57:13.679Z,996.43
2019-05-21T04:58:13.669Z,996.42
2019-05-21T04:59:13.671Z,996.41
2019-05-21T05:00:13.660Z,996.41
2019-05-21T05:01:13.659Z,996.42
2019-05-21T05:02:13.659Z,996.40
2019-05-21T05:03:13.662Z,996.42
2019-05-21T05:04:13.653Z,996.46
2019-05-21T05:05:13.649Z,996.44
2019-05-21T05:06:13.641Z,996.45
2019-05-21T05:07:26.781Z,996.42
2019-05-21T05:08:13.633Z,996.49
2019-05-21T05:09:13.632Z,996.45
2019-05-21T05:10:13.630Z,996.44
2019-05-21T05:11:13.627Z,996.43
2019-05-21T05:12:13.622Z,996.42
2019-05-21T05:13:13.621Z,996.47
2019-05-21T05:14:13.608Z,996.52
2019-05-21T05:15:13.603Z,996.45
2019-05-21T05:16:13.614Z,996.48
2019-05-21T05:17:13.608Z,996.47
2019-05-21T05:18:13.592Z,996.45
2019-05-21T05:19:13.590Z,996.49
2019-05-21T05:20:13.592Z,996.48
2019-05-21T05:21:13.588Z,996.45
2019-05-21T05:22:13.582Z,996.40
2019-05-21T05:23:13.579Z,996.41
2019-05-21T05:24:13.584Z,996.42
2019-05-21T05:25:13.599Z,996.43
2019-05-21T05:26:13.572Z,996.40
2019-05-21T05:27:13.563Z,996.39
2019-05-21T05:28:13.561Z,996.39
2019-05-21T05:29:13.625Z,996.38
2019-05-21T05:30:13.557Z,996.40
2019-05-21T05:31:15.462Z,996.39
2019-05-21T05:32:13.549Z,996.38
2019-05-21T05:33:13.545Z,996.38
2019-05-21T05:34:13.537Z,996.36
2019-05-21T05:35:13.533Z,996.34
2019-05-21T05:36:13.535Z,996.29
2019-05-21T05:37:13.524Z,996.31
2019-05-21T05:38:13.521Z,996.33
2019-05-21T05:39:13.517Z,996.33
2019-05-21T05:40:13.855Z,996.36
2019-05-21T05:41:13.513Z,996.31
2019-05-21T05:42:13.511Z,996.30
2019-05-21T05:43:13.507Z,996.31
2019-05-21T05:44:13.502Z,996.30
2019-05-21T05:45:13.498Z,996.31
2019-05-21T05:46:13.506Z,996.30
2019-05-21T05:47:13.490Z,996.38
2019-05-21T05:48:13.487Z,996.34
2019-05-21T05:49:13.481Z,996.33
2019-05-21T05:50:13.484Z,996.37
2019-05-21T05:51:13.475Z,996.34
2019-05-21T05:52:13.467Z,996.29
2019-05-21T05:53:13.467Z,996.31
2019-05-21T05:54:13.474Z,996.30
2019-05-21T05:55:13.455Z,996.31
2019-05-21T05:56:13.449Z,996.32
2019-05-21T05:57:13.464Z,996.22
2019-05-21T05:58:13.450Z,996.25
2019-05-21T05:59:14.364Z,996.23
2019-05-21T06:00:13.439Z,996.20
2019-05-21T06:01:13.435Z,996.22
2019-05-21T06:02:13.433Z,996.26
2019-05-21T06:03:13.436Z,996.27
2019-05-21T06:04:13.433Z,996.27
2019-05-21T06:05:13.457Z,996.27
2019-05-21T06:06:13.423Z,996.32
2019-05-21T06:07:13.410Z,996.27
2019-05-21T06:08:13.407Z,996.26
2019-05-21T06:09:13.403Z,996.31
2019-05-21T06:10:13.399Z,996.33
2019-05-21T06:11:13.396Z,996.36
2019-05-21T06:12:13.390Z,996.44
2019-05-21T06:13:13.387Z,996.39
2019-05-21T06:14:13.392Z,996.41
2019-05-21T06:15:13.379Z,996.37
2019-05-21T06:16:13.372Z,996.42
2019-05-21T06:17:13.373Z,996.42
2019-05-21T06:18:13.417Z,996.39
2019-05-21T06:19:13.365Z,996.47
2019-05-21T06:20:13.357Z,996.48
2019-05-21T06:21:13.355Z,996.47
2019-05-21T06:22:13.352Z,996.50
2019-05-21T06:23:13.340Z,996.52
2019-05-21T06:24:13.805Z,996.54
2019-05-21T06:25:13.358Z,996.51
2019-05-21T06:26:13.328Z,996.50
2019-05-21T06:27:13.370Z,996.42
2019-05-21T06:28:13.326Z,996.46
2019-05-21T06:29:13.328Z,996.46
2019-05-21T06:30:13.314Z,996.45
2019-05-21T06:31:13.401Z,996.47
2019-05-21T06:32:13.310Z,996.55
2019-05-21T06:33:13.302Z,996.57
2019-05-21T06:34:13.298Z,996.55
2019-05-21T06:35:13.293Z,996.48
2019-05-21T06:36:13.294Z,996.56
2019-05-21T06:37:13.295Z,996.51
2019-05-21T06:38:17.801Z,996.51
2019-05-21T06:39:13.276Z,996.51
2019-05-21T06:40:13.274Z,996.50
2019-05-21T06:41:13.279Z,996.58
2019-05-21T06:42:13.266Z,996.56
2019-05-21T06:43:13.258Z,996.62
2019-05-21T06:44:13.264Z,996.66
2019-05-21T06:45:13.257Z,996.74
2019-05-21T06:46:13.247Z,996.71
2019-05-21T06:47:13.242Z,996.73
2019-05-21T06:48:13.239Z,996.66
2019-05-21T06:49:13.246Z,996.67
2019-05-21T06:50:13.239Z,996.75
2019-05-21T06:51:13.227Z,996.70
2019-05-21T06:52:13.281Z,996.68
2019-05-21T06:53:13.215Z,996.62
2019-05-21T06:54:13.218Z,996.69
2019-05-21T06:55:13.203Z,996.74
2019-05-21T06:56:13.212Z,996.71
2019-05-21T06:57:13.203Z,996.66
2019-05-21T06:58:13.207Z,996.67
2019-05-21T06:59:13.195Z,996.71
2019-05-21T07:00:13.193Z,996.65
2019-05-21T07:01:13.191Z,996.63
2019-05-21T07:02:13.184Z,996.68
2019-05-21T07:03:13.183Z,996.70
2019-05-21T07:04:13.172Z,996.73
2019-05-21T07:05:13.165Z,996.75
2019-05-21T07:06:13.167Z,996.77
2019-05-21T07:07:13.157Z,996.74
2019-05-21T07:08:13.158Z,996.82
2019-05-21T07:09:13.156Z,996.85
2019-05-21T07:10:13.144Z,996.90
2019-05-21T07:11:13.141Z,996.93
2019-05-21T07:12:13.138Z,996.95
2019-05-21T07:13:13.134Z,996.95
2019-05-21T07:14:13.162Z,997.01
2019-05-21T07:15:13.129Z,997.07
2019-05-21T07:16:13.125Z,997.06
2019-05-21T07:17:13.114Z,997.00
2019-05-21T07:18:13.113Z,997.04
2019-05-21T07:19:13.104Z,997.02
2019-05-21T07:20:13.102Z,997.02
2019-05-21T07:21:13.106Z,997.03
2019-05-21T07:22:13.536Z,997.00
2019-05-21T07:23:13.091Z,996.96
2019-05-21T07:24:13.085Z,996.99
2019-05-21T07:25:13.129Z,997.06
2019-05-21T07:26:13.079Z,997.01
2019-05-21T07:27:13.081Z,997.08
2019-05-21T07:28:13.061Z,997.03
2019-05-21T07:29:13.072Z,997.05
2019-05-21T07:30:13.067Z,997.02
2019-05-21T07:31:17.095Z,997.05
2019-05-21T07:32:13.064Z,997.10
2019-05-21T07:33:13.072Z,997.07
2019-05-21T07:34:13.048Z,997.09
2019-05-21T07:35:13.051Z,997.15
2019-05-21T07:36:13.043Z,997.13
2019-05-21T07:37:13.043Z,997.21
2019-05-21T07:38:13.029Z,997.24
2019-05-21T07:39:13.024Z,997.18
2019-05-21T07:40:13.027Z,997.18
2019-05-21T07:41:13.020Z,997.24
2019-05-21T07:42:13.022Z,997.20
2019-05-21T07:43:13.013Z,997.20
2019-05-21T07:44:13.014Z,997.21
2019-05-21T07:45:13.010Z,997.24
2019-05-21T07:46:13.006Z,997.30
2019-05-21T07:47:13.003Z,997.27
2019-05-21T07:48:13.028Z,997.29
2019-05-21T07:49:12.986Z,997.24
2019-05-21T07:50:13.043Z,997.31
2019-05-21T07:51:12.983Z,997.28
2019-05-21T07:52:12.977Z,997.32
2019-05-21T07:53:12.972Z,997.27
2019-05-21T07:54:12.965Z,997.24
2019-05-21T07:55:12.965Z,997.29
2019-05-21T07:56:12.972Z,997.31
2019-05-21T07:57:12.950Z,997.22
2019-05-21T07:58:12.955Z,997.24
2019-05-21T07:59:12.969Z,997.25
2019-05-21T08:00:12.939Z,997.25
2019-05-21T08:01:12.942Z,997.25
2019-05-21T08:02:12.936Z,997.22
2019-05-21T08:03:12.959Z,997.24
2019-05-21T08:04:12.925Z,997.20
2019-05-21T08:05:12.931Z,997.24
2019-05-21T08:06:14.971Z,997.25
2019-05-21T08:07:12.911Z,997.31
2019-05-21T08:08:12.906Z,997.33
2019-05-21T08:09:14.706Z,997.37
2019-05-21T08:10:12.907Z,997.35
2019-05-21T08:11:12.905Z,997.39
2019-05-21T08:12:36.793Z,997.42
2019-05-21T08:13:12.897Z,997.44
2019-05-21T08:14:12.884Z,997.44
2019-05-21T08:15:12.887Z,997.38
2019-05-21T08:16:12.875Z,997.43
2019-05-21T08:17:12.867Z,997.32
2019-05-21T08:18:12.881Z,997.38
2019-05-21T08:19:12.860Z,997.46
2019-05-21T08:20:12.860Z,997.42
2019-05-21T08:21:12.858Z,997.40
2019-05-21T08:22:12.854Z,997.49
2019-05-21T08:23:12.850Z,997.46
2019-05-21T08:24:12.861Z,997.48
2019-05-21T08:25:14.679Z,997.48
2019-05-21T08:26:12.838Z,997.46
2019-05-21T08:27:12.830Z,997.51
2019-05-21T08:28:12.848Z,997.48
2019-05-21T08:29:12.822Z,997.55
2019-05-21T08:30:12.831Z,997.54
2019-05-21T08:31:12.813Z,997.59
2019-05-21T08:32:12.807Z,997.58
2019-05-21T08:33:12.824Z,997.62
2019-05-21T08:34:12.811Z,997.67
2019-05-21T08:35:12.799Z,997.64
2019-05-21T08:36:12.793Z,997.70
2019-05-21T08:37:12.794Z,997.71
2019-05-21T08:38:12.795Z,997.61
2019-05-21T08:39:27.744Z,997.73
2019-05-21T08:40:12.781Z,997.66
2019-05-21T08:41:12.778Z,997.70
2019-05-21T08:42:12.772Z,997.70
2019-05-21T08:43:12.775Z,997.72
2019-05-21T08:44:12.762Z,997.73
2019-05-21T08:45:12.757Z,997.73
2019-05-21T08:46:12.758Z,997.71
2019-05-21T08:47:12.754Z,997.75
2019-05-21T08:48:12.754Z,997.72
2019-05-21T08:49:12.746Z,997.77
2019-05-21T08:50:12.742Z,997.78
2019-05-21T08:51:12.736Z,997.75
2019-05-21T08:52:12.735Z,997.78
2019-05-21T08:53:12.726Z,997.75
2019-05-21T08:54:12.776Z,997.76
2019-05-21T08:55:12.724Z,997.74
2019-05-21T08:56:12.716Z,997.82
2019-05-21T08:57:12.717Z,997.79
2019-05-21T08:58:12.722Z,997.81
2019-05-21T08:59:12.704Z,997.74
2019-05-21T09:00:12.703Z,997.73
2019-05-21T09:01:12.701Z,997.75
2019-05-21T09:02:12.694Z,997.73
2019-05-21T09:03:12.702Z,997.72
2019-05-21T09:04:12.682Z,997.75
2019-05-21T09:05:12.687Z,997.76
2019-05-21T09:06:12.679Z,997.75
2019-05-21T09:07:12.671Z,997.81
2019-05-21T09:08:12.679Z,997.78
2019-05-21T09:09:12.663Z,997.72
2019-05-21T09:10:12.658Z,997.70
2019-05-21T09:11:12.660Z,997.67
2019-05-21T09:12:12.653Z,997.69
2019-05-21T09:13:12.670Z,997.65
2019-05-21T09:14:12.643Z,997.63
2019-05-21T09:15:12.638Z,997.66
2019-05-21T09:16:12.641Z,997.67
2019-05-21T09:17:12.631Z,997.57
2019-05-21T09:18:12.626Z,997.64
2019-05-21T09:19:12.627Z,997.66
2019-05-21T09:20:12.624Z,997.66
2019-05-21T09:21:12.627Z,997.69
2019-05-21T09:22:12.611Z,997.74
2019-05-21T09:23:12.612Z,997.71
2019-05-21T09:24:12.621Z,997.73
2019-05-21T09:25:12.601Z,997.74
2019-05-21T09:26:12.600Z,997.70
2019-05-21T09:27:12.596Z,997.78
2019-05-21T09:28:12.591Z,997.81
2019-05-21T09:29:12.588Z,997.84
2019-05-21T09:30:12.587Z,997.84
2019-05-21T09:31:12.658Z,997.90
2019-05-21T09:32:12.577Z,997.87
2019-05-21T09:33:12.565Z,997.91
2019-05-21T09:34:12.576Z,997.82
2019-05-21T09:35:12.565Z,997.85
2019-05-21T09:36:12.561Z,997.86
2019-05-21T09:37:19.598Z,997.86
2019-05-21T09:38:12.549Z,997.92
2019-05-21T09:39:12.555Z,997.89
2019-05-21T09:40:12.553Z,997.95
2019-05-21T09:41:12.554Z,997.97
2019-05-21T09:42:12.546Z,997.96
2019-05-21T09:43:12.535Z,997.98
2019-05-21T09:44:12.522Z,997.93
2019-05-21T09:45:12.537Z,997.96
2019-05-21T09:46:12.524Z,998.00
2019-05-21T09:47:12.514Z,998.04
2019-05-21T09:48:12.507Z,998.00
2019-05-21T09:49:12.516Z,998.02
2019-05-21T09:50:12.519Z,997.98
2019-05-21T09:51:19.739Z,998.01
2019-05-21T09:52:12.501Z,998.09
2019-05-21T09:53:12.508Z,998.12
2019-05-21T09:54:12.492Z,998.12
2019-05-21T09:55:12.492Z,998.16
2019-05-21T09:56:12.479Z,998.16
2019-05-21T09:57:12.480Z,998.18
2019-05-21T09:58:12.473Z,998.28
2019-05-21T09:59:12.502Z,998.32
2019-05-21T10:00:12.470Z,998.33
2019-05-21T10:01:12.460Z,998.35
2019-05-21T10:02:12.535Z,998.32
2019-05-21T10:03:12.477Z,998.30
2019-05-21T10:04:12.453Z,998.33
2019-05-21T10:05:12.459Z,998.32
2019-05-21T10:06:12.469Z,998.30
2019-05-21T10:07:12.448Z,998.36
2019-05-21T10:08:12.434Z,998.32
2019-05-21T10:09:12.442Z,998.36
2019-05-21T10:10:12.475Z,998.36
2019-05-21T10:11:12.428Z,998.39
2019-05-21T10:12:12.426Z,998.43
2019-05-21T10:13:12.421Z,998.43
2019-05-21T10:14:12.419Z,998.36
2019-05-21T10:15:12.419Z,998.31
2019-05-21T10:16:12.403Z,998.35
2019-05-21T10:17:12.413Z,998.39
2019-05-21T10:18:12.407Z,998.44
2019-05-21T10:19:12.397Z,998.46
2019-05-21T10:20:12.393Z,998.47
2019-05-21T10:21:12.387Z,998.46
2019-05-21T10:22:12.439Z,998.54
2019-05-21T10:23:12.384Z,998.44
2019-05-21T10:24:12.383Z,998.52
2019-05-21T10:25:15.364Z,998.54
2019-05-21T10:26:12.366Z,998.56
2019-05-21T10:27:12.367Z,998.59
2019-05-21T10:28:12.371Z,998.60
2019-05-21T10:29:12.359Z,998.56
2019-05-21T10:30:12.384Z,998.62
2019-05-21T10:31:12.352Z,998.60
2019-05-21T10:32:12.351Z,998.69
2019-05-21T10:33:12.350Z,998.64
2019-05-21T10:34:13.511Z,998.63
2019-05-21T10:35:12.343Z,998.61
2019-05-21T10:36:12.339Z,998.57
2019-05-21T10:37:12.335Z,998.57
2019-05-21T10:38:12.338Z,998.55
2019-05-21T10:39:12.329Z,998.57
2019-05-21T10:40:12.318Z,998.64
2019-05-21T10:41:12.322Z,998.66
2019-05-21T10:42:12.323Z,998.66
2019-05-21T10:43:12.330Z,998.74
2019-05-21T10:44:12.311Z,998.79
2019-05-21T10:45:12.301Z,998.77
2019-05-21T10:46:12.298Z,998.78
2019-05-21T10:47:15.943Z,998.86
2019-05-21T10:48:12.364Z,998.83
2019-05-21T10:49:12.344Z,998.83
2019-05-21T10:50:12.286Z,998.89
2019-05-21T10:51:12.531Z,998.91
2019-05-21T10:52:12.285Z,998.90
2019-05-21T10:53:12.279Z,998.89
2019-05-21T10:54:12.275Z,998.91
2019-05-21T10:55:15.822Z,998.94
2019-05-21T10:56:12.263Z,998.90
2019-05-21T10:57:12.259Z,998.87
2019-05-21T10:58:12.268Z,998.88
2019-05-21T10:59:12.257Z,998.84
2019-05-21T11:00:12.260Z,998.87
2019-05-21T11:01:12.254Z,998.88
2019-05-21T11:02:12.241Z,998.88
2019-05-21T11:03:12.278Z,998.93
2019-05-21T11:04:12.250Z,998.93
2019-05-21T11:05:12.232Z,999.01
2019-05-21T11:06:12.229Z,998.95
2019-05-21T11:07:12.225Z,998.99
2019-05-21T11:08:23.691Z,999.01
2019-05-21T11:09:12.219Z,998.98
2019-05-21T11:10:12.321Z,998.97
2019-05-21T11:11:12.230Z,999.01
2019-05-21T11:12:12.224Z,999.07
2019-05-21T11:13:12.238Z,999.05
2019-05-21T11:14:12.199Z,999.02
2019-05-21T11:15:12.205Z,999.09
2019-05-21T11:16:12.213Z,999.13
2019-05-21T11:17:12.195Z,999.15
2019-05-21T11:18:12.354Z,999.18
2019-05-21T11:19:12.193Z,999.15
2019-05-21T11:20:12.185Z,999.18
2019-05-21T11:21:12.178Z,999.16
2019-05-21T11:22:12.182Z,999.20
2019-05-21T11:23:12.178Z,999.19
2019-05-21T11:24:12.523Z,999.22
2019-05-21T11:25:12.177Z,999.21
2019-05-21T11:26:12.194Z,999.22
2019-05-21T11:27:12.166Z,999.23
2019-05-21T11:28:12.163Z,999.22
2019-05-21T11:29:12.160Z,999.26
2019-05-21T11:30:12.151Z,999.27
2019-05-21T11:31:12.161Z,999.29
2019-05-21T11:32:12.154Z,999.25
2019-05-21T11:33:12.171Z,999.26
2019-05-21T11:34:12.144Z,999.31
2019-05-21T11:35:12.147Z,999.31
2019-05-21T11:36:12.148Z,999.34
2019-05-21T11:37:12.138Z,999.34
2019-05-21T11:38:12.128Z,999.31
2019-05-21T11:39:12.166Z,999.38
2019-05-21T11:40:12.124Z,999.42
2019-05-21T11:41:12.201Z,999.41
2019-05-21T11:42:12.120Z,999.40
2019-05-21T11:43:12.110Z,999.43
2019-05-21T11:44:12.148Z,999.40
2019-05-21T11:45:12.104Z,999.45
2019-05-21T11:46:12.105Z,999.47
2019-05-21T11:47:12.096Z,999.44
2019-05-21T11:48:12.094Z,999.47
2019-05-21T11:49:12.105Z,999.47
2019-05-21T11:50:12.098Z,999.49
2019-05-21T11:51:12.929Z,999.52
2019-05-21T11:52:12.084Z,999.57
2019-05-21T11:53:12.090Z,999.60
2019-05-21T11:54:12.127Z,999.51
2019-05-21T11:55:12.078Z,999.57
2019-05-21T11:56:12.075Z,999.60
2019-05-21T11:57:12.070Z,999.55
2019-05-21T11:58:12.063Z,999.50
2019-05-21T11:59:12.077Z,999.58
2019-05-21T12:00:12.090Z,999.58
2019-05-21T12:01:12.306Z,999.61
2019-05-21T12:02:12.053Z,999.60
2019-05-21T12:03:12.048Z,999.67
2019-05-21T12:04:12.056Z,999.63
2019-05-21T12:05:12.050Z,999.58
2019-05-21T12:06:12.039Z,999.64
2019-05-21T12:07:12.052Z,999.61
2019-05-21T12:08:12.045Z,999.61
2019-05-21T12:09:12.037Z,999.68
2019-05-21T12:10:12.039Z,999.70
2019-05-21T12:11:12.033Z,999.69
2019-05-21T12:12:12.032Z,999.65
2019-05-21T12:13:12.051Z,999.71
2019-05-21T12:14:12.024Z,999.68
2019-05-21T12:15:12.013Z,999.67
2019-05-21T12:16:12.019Z,999.70
2019-05-21T12:17:12.012Z,999.68
2019-05-21T12:18:12.029Z,999.63
2019-05-21T12:19:12.012Z,999.69
2019-05-21T12:20:12.010Z,999.67
2019-05-21T12:21:12.018Z,999.65
2019-05-21T12:22:11.998Z,999.63
2019-05-21T12:23:12.008Z,999.68
2019-05-21T12:24:11.992Z,999.73
2019-05-21T12:25:12.002Z,999.66
2019-05-21T12:26:11.991Z,999.66
2019-05-21T12:27:11.980Z,999.71
2019-05-21T12:28:11.991Z,999.73
2019-05-21T12:29:11.985Z,999.73
2019-05-21T12:30:12.005Z,999.74
2019-05-21T12:31:11.978Z,999.75
2019-05-21T12:32:11.980Z,999.80
2019-05-21T12:33:11.984Z,999.83
2019-05-21T12:34:11.968Z,999.87
2019-05-21T12:35:11.994Z,999.91
2019-05-21T12:36:11.954Z,999.91
2019-05-21T12:37:11.957Z,999.91
2019-05-21T12:38:12.015Z,999.94
2019-05-21T12:39:14.612Z,999.94
2019-05-21T12:40:11.960Z,999.94
2019-05-21T12:41:13.846Z,999.93
2019-05-21T12:42:11.936Z,999.95
2019-05-21T12:43:11.933Z,999.93
2019-05-21T12:44:11.931Z,999.93
2019-05-21T12:45:11.936Z,999.99
2019-05-21T12:46:11.921Z,1000.00
2019-05-21T12:47:12.048Z,999.98
2019-05-21T12:48:11.922Z,999.98
2019-05-21T12:49:11.917Z,1000.00
2019-05-21T12:50:11.905Z,999.99